LGIRLCLK

Guest
Details From LGIR - Iraklion - Nizos Kazantzakis
To LCLK - Larnaca
Flight Number -
Tags Decoded
Created
Modified
Stats Distance 417 nm / 773 km
Max Altitude 0 ft / 0 m
Waypoints 4
Social Downloads 2
Likes 0
Share VATSIM

Download

Looking for another format? Having issues loading an existing format? Contact us
Advertisement - Login to hide

Notes

Decoded

Route

LGIR SIT RUBIK LCLK

ID Type Via Altitude Latitude Longitude Leg Dist Tot Dist Heading (true) Name
O LGIR APT - 0 ft / 0 m 35.34229˚ 25.18426˚ - 0 nm - Iraklion - Nizos Kazantzakis
SIT VOR - 0 ft / 0 m 35.06842˚ 26.18906˚ 51 nm 51 nm 108° / 109° SITIA VOR-DME
RUBIK FIX - 0 ft / 0 m 34.90333˚ 33.08167˚ 339 nm 391 nm 90° / 94° -
O LCLK APT - 0 ft / 0 m 34.86568˚ 33.61326˚ 26 nm 417 nm 95° / 95° -

Altitude Profile

Advertisement - Login to hide

Weather


0- 5 10 15 20 25 30 35+ Temperature / ° C

Clouds and Precipitation
Forecast for 2017-12-13 00:00 UTC. Updated an hour ago

Ground ~20,000 ft ~40,000 ft Winds

LGIR

Details ICAO LGIR (HER)
Name Iraklion - Nizos Kazantzakis
Region Greece
Timezone Europe/Athens (UTC+2.0)
Stats Elevation 115 ft / 35 m (AMSL)
Location 35.339487° 25.180120°
Runways 3
Magnetic Variation 4.379° E

METAR

LGIR 121950Z 17007KT CAVOK 11/09 Q1022 NOSIG

Decode

TAF

TAF LGIR 121700Z 1218/1318 VRB05KT 9999 FEW020 BECMG 1218/1220 18010KT BECMG 1306/1308 29015KT

Decode

Departure Runways

ID Width Length Bearing (true) Bearing (mag) Surface Threshold Offset Overrun Length
09 148 ft / 45 m 8,755 ft / 2,669 m 94.84° 90.46° Asphalt 1,565 ft / 477 m 200 ft / 61 m
12 164 ft / 50 m 5,136 ft / 1,566 m 126.27° 121.89° Asphalt 499 ft / 152 m 190 ft / 58 m
18 131 ft / 40 m 2,607 ft / 795 m 180.40° 176.02° Asphalt 0 ft / 0 m 0 ft / 0 m
27 148 ft / 45 m 8,755 ft / 2,669 m 274.86° 270.48° Asphalt 0 ft / 0 m 210 ft / 64 m
30 164 ft / 50 m 5,136 ft / 1,566 m 306.28° 301.90° Asphalt 0 ft / 0 m 0 ft / 0 m
36 131 ft / 40 m 2,607 ft / 795 m 0.40° 356.02° Asphalt 328 ft / 100 m 0 ft / 0 m

LCLK

Details ICAO LCLK (LCA)
Name Larnaca
Region Cyprus
Timezone Asia/Nicosia (UTC+2.0)
Stats Elevation 8 ft / 2 m (AMSL)
Location 34.875115° 33.624832°
Runways 1
Magnetic Variation 4.990° E

METAR

LCLK 122000Z 32006KT CAVOK 15/09 Q1019 NOSIG

Decode

TAF

TAF LCLK 121730Z 1218/1318 33009KT 9999 FEW030= TAF LCPH 121730Z 1218/1318 02007KT 9999 FEW030 BECMG 1308/1311 32015KT BECMG 1316/1318 02007KT

Decode

Destination Runways

ID Width Length Bearing (true) Bearing (mag) Surface Threshold Offset Overrun Length
04 148 ft / 45 m 9,771 ft / 2,978 m 45.15° 40.16° Asphalt 0 ft / 0 m 210 ft / 64 m
22 148 ft / 45 m 9,771 ft / 2,978 m 225.17° 220.18° Asphalt 575 ft / 175 m 0 ft / 0 m

Approach Navaids

Runway Type Ident Frequency Range Bearing (true) Bearing (mag) Slope Elevation
22 Localiser ILC 110.30 MHz 18 nm / 33 km 225.17° 220.18° - 8 ft / 2 m (AMSL)
22 Glidescope ILC 110.30 MHz 10 nm / 19 km 225.16° 220.17° 2.75° 24 ft / 7 m (AMSL)
22 DME ILC 110.30 MHz 18 nm / 33 km - - - 20 ft / 6 m (AMSL)

Popular Alternatives